Time;durP1;ratioP1;P1;durP2;ratioP2;P2;SDS_P1;SDS_P2;PMS_P1;PMS_P2;Temp;Humidity;BMP_temperature;BMP_pressure;BME280_temperature;BME280_humidity;BME280_pressure;Samples;Min_cycle;Max_cycle;Signal;HPM_P1;HPM_P2
2023/03/18 00:00:57;;;;;;;6.97;4.97;;;12.50;21.00;;;;;;5051802;28;20215;-49
2023/03/18 00:03:24;;;;;;;10.02;5.40;;;12.50;20.90;;;;;;5051554;28;20146;-49
2023/03/18 00:05:49;;;;;;;6.00;4.22;;;12.50;21.00;;;;;;5051426;28;20205;-49
2023/03/18 00:08:16;;;;;;;6.40;4.67;;;12.50;21.10;;;;;;5051154;28;20788;-49
2023/03/18 00:10:41;;;;;;;7.38;5.07;;;12.40;20.90;;;;;;5051233;28;20587;-49
2023/03/18 00:13:07;;;;;;;9.77;4.37;;;12.40;21.10;;;;;;5051239;28;20165;-50
2023/03/18 00:15:33;;;;;;;7.83;4.40;;;12.40;21.00;;;;;;5051253;28;20169;-49
2023/03/18 00:18:00;;;;;;;8.87;4.90;;;12.30;21.30;;;;;;5051216;28;20194;-51
2023/03/18 00:20:37;;;;;;;7.75;4.43;;;12.30;21.10;;;;;;5051492;28;20418;-51
2023/03/18 00:23:05;;;;;;;7.40;5.25;;;12.30;22.00;;;;;;5051199;28;20185;-51
2023/03/18 00:25:31;;;;;;;11.48;4.85;;;12.20;21.20;;;;;;5051004;28;20557;-49
2023/03/18 00:27:57;;;;;;;5.65;4.30;;;12.20;21.20;;;;;;5051252;28;20197;-48
2023/03/18 00:30:24;;;;;;;8.67;4.53;;;12.20;21.30;;;;;;5051081;28;20173;-50
2023/03/18 00:32:50;;;;;;;6.97;5.10;;;12.20;21.30;;;;;;5051189;28;20168;-49
2023/03/18 00:35:16;;;;;;;9.17;5.33;;;12.10;21.40;;;;;;5050649;28;20215;-50
2023/03/18 00:37:42;;;;;;;7.32;5.05;;;12.10;21.70;;;;;;5050629;28;20224;-49
2023/03/18 00:40:16;;;;;;;12.97;5.83;;;12.10;21.40;;;;;;5050855;28;20196;-49
2023/03/18 00:42:46;;;;;;;8.20;5.60;;;12.10;21.40;;;;;;5050746;28;20162;-49
2023/03/18 00:45:14;;;;;;;5.85;4.50;;;12.10;21.50;;;;;;5050840;28;20323;-49
2023/03/18 00:47:41;;;;;;;11.18;5.25;;;12.00;21.50;;;;;;5049237;28;20288;-49
2023/03/18 00:50:09;;;;;;;8.60;4.60;;;12.00;21.40;;;;;;5050723;28;20600;-48
2023/03/18 00:52:36;;;;;;;9.80;5.38;;;12.00;21.60;;;;;;5050632;28;20820;-49
2023/03/18 00:55:03;;;;;;;7.60;4.63;;;12.10;21.60;;;;;;5050605;28;20314;-49
2023/03/18 00:57:29;;;;;;;9.13;5.65;;;12.10;21.80;;;;;;5050651;28;20196;-49
2023/03/18 00:59:56;;;;;;;5.60;4.75;;;12.00;21.60;;;;;;5050555;28;20666;-49
2023/03/18 01:02:22;;;;;;;5.63;4.43;;;12.10;21.60;;;;;;5050544;28;20180;-48
2023/03/18 01:04:49;;;;;;;8.95;4.07;;;12.00;21.30;;;;;;5050708;28;20177;-49
2023/03/18 01:07:15;;;;;;;10.77;5.32;;;12.10;21.60;;;;;;5050382;28;20224;-50
2023/03/18 01:09:42;;;;;;;8.87;4.40;;;12.10;21.60;;;;;;5050387;28;20736;-49
2023/03/18 01:12:09;;;;;;;7.43;5.32;;;12.10;21.60;;;;;;5050374;28;20982;-49
2023/03/18 01:14:37;;;;;;;7.95;5.20;;;12.10;21.50;;;;;;5050425;28;20173;-48
2023/03/18 01:17:05;;;;;;;10.38;5.03;;;12.10;21.50;;;;;;5050465;28;20193;-49
2023/03/18 01:19:31;;;;;;;7.68;5.30;;;12.10;21.40;;;;;;5050603;28;20181;-49
2023/03/18 01:21:57;;;;;;;6.50;5.07;;;12.10;21.20;;;;;;5050855;28;20723;-50
2023/03/18 01:24:23;;;;;;;15.10;5.10;;;12.10;21.60;;;;;;5051359;28;20215;-50
2023/03/18 01:26:49;;;;;;;6.53;4.80;;;12.10;21.40;;;;;;5050782;28;20708;-50
2023/03/18 01:29:16;;;;;;;10.68;5.25;;;12.00;21.20;;;;;;5051049;28;20415;-50
2023/03/18 01:31:42;;;;;;;13.35;4.88;;;12.00;21.20;;;;;;5050631;28;20661;-49
2023/03/18 01:34:08;;;;;;;7.83;4.83;;;11.90;21.40;;;;;;5050223;28;20178;-50
2023/03/18 01:36:33;;;;;;;6.73;4.43;;;12.00;21.50;;;;;;5050005;28;20204;-49
2023/03/18 01:38:59;;;;;;;5.13;3.80;;;12.00;21.60;;;;;;5050324;28;20177;-49
2023/03/18 01:41:25;;;;;;;8.40;4.37;;;12.00;21.60;;;;;;5050003;28;20199;-49
2023/03/18 01:43:54;;;;;;;7.03;4.67;;;12.00;21.30;;;;;;5050187;28;20672;-49
2023/03/18 01:46:38;;;;;;;7.40;4.80;;;12.00;21.60;;;;;;5050145;28;20958;-51
2023/03/18 01:49:16;;;;;;;10.40;5.50;;;12.00;21.60;;;;;;5054062;28;20177;-51
2023/03/18 01:51:47;;;;;;;7.65;4.78;;;11.90;21.60;;;;;;5054057;28;20167;-51
2023/03/18 01:54:14;;;;;;;6.63;4.25;;;11.90;21.70;;;;;;5054303;28;20169;-51
2023/03/18 01:56:43;;;;;;;6.85;5.35;;;11.90;21.60;;;;;;5053889;28;20185;-49
2023/03/18 01:59:11;;;;;;;7.30;4.53;;;11.90;21.80;;;;;;5053828;28;20184;-49
2023/03/18 02:01:57;;;;;;;5.88;4.82;;;11.90;21.80;;;;;;5054273;28;20169;-49
2023/03/18 02:04:26;;;;;;;9.18;6.00;;;11.80;21.90;;;;;;5054031;28;20680;-48
2023/03/18 02:06:52;;;;;;;8.05;5.65;;;11.80;21.60;;;;;;5053691;28;20220;-49
2023/03/18 02:09:18;;;;;;;8.20;4.70;;;11.90;22.00;;;;;;5053854;28;20170;-49
2023/03/18 02:11:48;;;;;;;7.90;4.60;;;11.90;21.90;;;;;;5053677;28;20485;-49
2023/03/18 02:14:16;;;;;;;8.30;5.13;;;11.90;21.60;;;;;;5053862;28;20407;-49
2023/03/18 02:17:03;;;;;;;6.63;4.65;;;11.80;22.00;;;;;;5053628;28;20286;-49
2023/03/18 02:19:53;;;;;;;7.65;5.72;;;11.90;22.00;;;;;;5053778;28;20247;-49
2023/03/18 02:22:37;;;;;;;8.70;5.43;;;11.80;22.00;;;;;;5053762;28;20173;-48
2023/03/18 02:25:09;;;;;;;6.88;5.38;;;11.80;21.90;;;;;;5053522;28;20216;-49
2023/03/18 02:27:39;;;;;;;6.50;4.13;;;11.70;22.10;;;;;;5053400;28;20243;-49
2023/03/18 02:30:12;;;;;;;5.90;4.80;;;11.60;21.90;;;;;;5053580;28;20183;-49
2023/03/18 02:32:40;;;;;;;10.18;4.68;;;11.60;22.10;;;;;;5053576;28;20161;-50
2023/03/18 02:35:09;;;;;;;7.00;5.18;;;11.60;22.20;;;;;;5053648;28;20176;-50
2023/03/18 02:37:36;;;;;;;10.43;4.88;;;11.70;22.30;;;;;;5053384;28;20200;-48
2023/03/18 02:40:32;;;;;;;7.03;4.50;;;11.70;22.10;;;;;;5053591;28;20183;-49
2023/03/18 02:43:18;;;;;;;6.32;4.70;;;11.70;22.30;;;;;;5052435;28;20185;-49
2023/03/18 02:45:50;;;;;;;6.97;4.90;;;11.70;22.30;;;;;;5053330;28;20197;-49
2023/03/18 02:48:19;;;;;;;7.32;4.90;;;11.60;22.70;;;;;;5053158;28;20200;-49
2023/03/18 02:50:48;;;;;;;11.43;5.90;;;11.60;22.40;;;;;;5053031;28;20181;-49
2023/03/18 02:53:14;;;;;;;6.25;4.70;;;11.60;22.40;;;;;;5053407;28;20177;-49
2023/03/18 02:55:41;;;;;;;7.05;4.75;;;11.60;22.70;;;;;;5053301;28;20199;-49
2023/03/18 02:58:08;;;;;;;9.93;5.35;;;11.50;22.70;;;;;;5052738;28;20272;-49
2023/03/18 03:00:34;;;;;;;6.95;4.78;;;11.50;22.50;;;;;;5053272;28;20191;-49
2023/03/18 03:03:00;;;;;;;7.35;5.07;;;11.50;23.20;;;;;;5053172;28;20177;-48
2023/03/18 03:05:27;;;;;;;7.55;5.10;;;11.50;22.50;;;;;;5052886;28;20274;-49
2023/03/18 03:07:53;;;;;;;7.00;4.53;;;11.50;22.70;;;;;;5052645;28;20189;-49
2023/03/18 03:10:18;;;;;;;6.80;5.38;;;11.50;22.60;;;;;;5053060;28;20180;-49
2023/03/18 03:12:44;;;;;;;7.70;4.93;;;11.50;22.60;;;;;;5052675;28;20165;-49
2023/03/18 03:15:10;;;;;;;8.07;4.85;;;11.50;22.90;;;;;;5052770;28;20671;-50
2023/03/18 03:17:37;;;;;;;7.47;4.40;;;11.40;22.60;;;;;;5052519;28;20196;-49
2023/03/18 03:20:05;;;;;;;11.35;5.30;;;11.40;22.90;;;;;;5052635;28;20177;-49
2023/03/18 03:22:32;;;;;;;12.27;4.47;;;11.50;22.80;;;;;;5052441;28;20173;-48
2023/03/18 03:24:58;;;;;;;9.60;5.13;;;11.50;22.70;;;;;;5052447;28;20260;-49
2023/03/18 03:27:24;;;;;;;8.50;5.05;;;11.40;22.80;;;;;;5052472;28;20243;-49
2023/03/18 03:29:49;;;;;;;7.10;5.27;;;11.40;22.80;;;;;;5052371;28;20660;-49
2023/03/18 03:32:16;;;;;;;6.50;4.77;;;11.50;23.10;;;;;;5052528;28;20223;-49
2023/03/18 03:34:42;;;;;;;8.40;4.95;;;11.50;23.10;;;;;;5052493;28;20212;-49
2023/03/18 03:37:08;;;;;;;5.00;3.85;;;11.40;22.90;;;;;;5052190;28;20270;-50
2023/03/18 03:39:34;;;;;;;8.38;4.57;;;11.40;23.00;;;;;;5052550;28;20181;-49
2023/03/18 03:41:59;;;;;;;7.87;5.03;;;11.40;23.10;;;;;;5052437;28;20618;-49
2023/03/18 03:44:25;;;;;;;7.70;4.80;;;11.40;22.90;;;;;;5052634;28;20180;-49
2023/03/18 03:46:51;;;;;;;5.87;4.50;;;11.40;23.00;;;;;;5052032;28;20204;-49
2023/03/18 03:49:17;;;;;;;7.23;4.33;;;11.30;23.00;;;;;;5052228;28;20185;-49
2023/03/18 03:51:43;;;;;;;7.43;5.13;;;11.40;23.30;;;;;;5052316;28;20173;-48
2023/03/18 03:54:12;;;;;;;7.30;4.43;;;11.40;23.30;;;;;;5052100;28;20764;-48
2023/03/18 03:56:38;;;;;;;7.20;4.35;;;11.30;23.30;;;;;;5052206;28;20842;-48
2023/03/18 03:59:04;;;;;;;6.25;4.93;;;11.30;23.40;;;;;;5052095;28;20184;-48
2023/03/18 04:01:30;;;;;;;7.30;5.50;;;11.30;23.30;;;;;;5051699;28;20656;-48
2023/03/18 04:03:56;;;;;;;6.53;4.80;;;11.20;23.30;;;;;;5051830;28;20228;-49
2023/03/18 04:06:22;;;;;;;6.93;5.07;;;11.20;23.30;;;;;;5051523;28;20490;-49
2023/03/18 04:08:48;;;;;;;9.48;5.60;;;11.30;23.60;;;;;;5051818;28;20178;-49
2023/03/18 04:11:14;;;;;;;9.10;5.30;;;11.20;23.30;;;;;;5050986;28;20225;-49
2023/03/18 04:13:40;;;;;;;6.43;4.40;;;11.20;23.40;;;;;;5051656;28;20175;-49
2023/03/18 04:16:06;;;;;;;8.32;4.60;;;11.30;23.60;;;;;;5051307;28;20831;-49
2023/03/18 04:18:32;;;;;;;7.47;5.85;;;11.30;23.50;;;;;;5051451;28;20183;-48
2023/03/18 04:20:58;;;;;;;6.80;4.47;;;11.30;23.50;;;;;;5051314;28;20575;-49
2023/03/18 04:23:24;;;;;;;7.18;5.43;;;11.20;23.50;;;;;;5051626;28;20226;-49
2023/03/18 04:25:50;;;;;;;9.00;5.30;;;11.20;23.60;;;;;;5051066;28;20197;-49
2023/03/18 04:28:16;;;;;;;7.50;5.13;;;11.20;23.70;;;;;;5051109;28;20513;-49
2023/03/18 04:30:41;;;;;;;5.93;4.20;;;11.20;23.70;;;;;;5051398;28;20407;-48
2023/03/18 04:33:08;;;;;;;8.10;5.33;;;11.30;23.60;;;;;;5051242;28;20757;-49
2023/03/18 04:35:35;;;;;;;10.00;4.55;;;11.20;23.70;;;;;;5051184;28;20177;-49
2023/03/18 04:38:01;;;;;;;7.63;4.75;;;11.10;23.90;;;;;;5051009;28;20242;-49
2023/03/18 04:40:27;;;;;;;8.80;5.37;;;11.10;23.90;;;;;;5051234;28;20557;-49
2023/03/18 04:42:53;;;;;;;7.38;5.15;;;11.00;23.90;;;;;;5051385;28;20177;-49
2023/03/18 04:45:18;;;;;;;7.93;5.60;;;11.00;24.00;;;;;;5051193;28;20538;-48
2023/03/18 04:47:45;;;;;;;14.47;5.20;;;11.00;24.00;;;;;;5050833;28;20189;-49
2023/03/18 04:50:12;;;;;;;5.13;4.20;;;11.00;24.00;;;;;;5050728;28;20682;-49
2023/03/18 04:52:40;;;;;;;7.53;5.50;;;11.00;24.10;;;;;;5050978;28;20182;-48
2023/03/18 04:55:07;;;;;;;7.85;4.80;;;11.00;24.00;;;;;;5050745;28;20219;-49
2023/03/18 04:57:34;;;;;;;5.78;4.53;;;11.00;24.00;;;;;;5050695;28;20203;-49
2023/03/18 05:00:01;;;;;;;15.75;4.72;;;11.00;24.00;;;;;;5050514;28;20898;-48
2023/03/18 05:02:27;;;;;;;6.32;5.45;;;10.90;24.00;;;;;;5050492;28;20173;-49
2023/03/18 05:04:52;;;;;;;13.13;5.30;;;10.90;24.10;;;;;;5050769;28;20200;-49
2023/03/18 05:07:19;;;;;;;6.97;5.13;;;10.90;24.10;;;;;;5050267;28;20247;-49
2023/03/18 05:09:44;;;;;;;9.00;4.97;;;10.90;24.10;;;;;;5050409;28;20823;-49
2023/03/18 05:12:14;;;;;;;8.93;4.90;;;10.90;24.20;;;;;;5050859;28;20181;-49
2023/03/18 05:14:42;;;;;;;7.18;4.95;;;10.90;24.30;;;;;;5050480;28;20216;-51
2023/03/18 05:17:14;;;;;;;6.60;4.70;;;10.90;24.00;;;;;;5050353;28;20551;-51
2023/03/18 05:19:44;;;;;;;6.82;5.03;;;10.80;24.20;;;;;;5050734;28;20169;-51
2023/03/18 05:22:10;;;;;;;6.07;5.15;;;10.90;24.30;;;;;;5050508;28;20295;-51
2023/03/18 05:24:38;;;;;;;9.45;5.30;;;10.70;24.30;;;;;;5050478;28;20174;-51
2023/03/18 05:27:03;;;;;;;7.53;5.90;;;10.70;24.20;;;;;;5049934;28;20213;-51
2023/03/18 05:29:29;;;;;;;7.77;4.83;;;10.60;24.60;;;;;;5050411;28;20528;-51
2023/03/18 05:31:55;;;;;;;9.00;4.80;;;10.60;24.80;;;;;;5050223;28;20235;-50
2023/03/18 05:34:20;;;;;;;7.17;4.93;;;10.60;24.50;;;;;;5050264;28;20275;-49
2023/03/18 05:36:47;;;;;;;6.30;4.57;;;10.60;24.60;;;;;;5050142;28;20193;-49
2023/03/18 05:39:12;;;;;;;5.50;4.13;;;10.60;24.50;;;;;;5050342;28;20186;-49
2023/03/18 05:41:38;;;;;;;10.40;4.87;;;10.60;24.90;;;;;;5050114;28;20180;-49
2023/03/18 05:44:04;;;;;;;8.60;4.77;;;10.60;24.70;;;;;;5050130;28;20177;-48
2023/03/18 05:46:30;;;;;;;5.32;4.50;;;10.60;24.60;;;;;;5049624;28;21106;-49
2023/03/18 05:48:56;;;;;;;8.67;6.20;;;10.60;24.70;;;;;;5049989;28;20248;-48
2023/03/18 05:51:22;;;;;;;7.37;5.47;;;10.60;24.70;;;;;;5050022;28;20473;-49
2023/03/18 05:53:48;;;;;;;7.13;5.03;;;10.60;24.90;;;;;;5049997;28;20410;-49
2023/03/18 05:56:14;;;;;;;9.23;5.05;;;10.70;24.80;;;;;;5049768;28;20181;-49
2023/03/18 05:58:40;;;;;;;9.07;5.33;;;10.70;24.70;;;;;;5050179;28;20269;-49
2023/03/18 06:01:06;;;;;;;9.83;4.73;;;10.60;24.90;;;;;;5049828;28;20481;-48
2023/03/18 06:03:33;;;;;;;9.40;5.28;;;10.70;25.00;;;;;;5049855;28;20415;-49
2023/03/18 06:06:00;;;;;;;7.15;5.05;;;10.70;24.90;;;;;;5049983;28;20212;-49
2023/03/18 06:08:27;;;;;;;9.52;5.15;;;10.70;25.10;;;;;;5049636;28;20192;-48
2023/03/18 06:10:53;;;;;;;9.60;6.05;;;10.70;25.00;;;;;;5049856;28;20173;-49
2023/03/18 06:13:19;;;;;;;7.45;4.88;;;10.70;24.80;;;;;;5050151;28;20232;-49
2023/03/18 06:15:45;;;;;;;5.57;4.63;;;10.70;25.00;;;;;;5049730;28;20272;-48
2023/03/18 06:18:11;;;;;;;8.40;5.75;;;10.70;25.00;;;;;;5049601;28;20846;-49
2023/03/18 06:20:37;;;;;;;8.63;6.07;;;10.80;25.00;;;;;;5049738;28;20219;-49
2023/03/18 06:23:04;;;;;;;6.53;4.93;;;10.80;25.00;;;;;;5050016;28;20172;-49
2023/03/18 06:25:30;;;;;;;7.88;5.05;;;10.70;24.80;;;;;;5049551;28;20564;-49
2023/03/18 06:27:56;;;;;;;7.57;5.97;;;10.80;25.10;;;;;;5049700;28;20818;-49
2023/03/18 06:30:22;;;;;;;9.20;5.25;;;10.80;24.90;;;;;;5049829;28;20181;-49
2023/03/18 06:32:47;;;;;;;9.87;5.63;;;10.80;25.10;;;;;;5050009;28;20700;-49
2023/03/18 06:35:14;;;;;;;7.60;5.10;;;10.90;25.00;;;;;;5053333;28;20578;-49
2023/03/18 06:37:40;;;;;;;7.00;5.60;;;11.00;24.70;;;;;;5053094;28;20239;-49
2023/03/18 06:40:07;;;;;;;10.20;6.00;;;11.00;24.90;;;;;;5053440;28;20177;-49
2023/03/18 06:42:33;;;;;;;8.23;5.72;;;11.10;25.00;;;;;;5053010;28;20410;-50
2023/03/18 06:44:59;;;;;;;11.07;4.80;;;11.10;25.00;;;;;;5053120;28;20173;-51
2023/03/18 06:47:25;;;;;;;8.90;6.17;;;11.20;24.80;;;;;;5052829;28;20698;-51
2023/03/18 06:49:50;;;;;;;8.97;5.10;;;11.20;24.40;;;;;;5053270;28;20276;-50
2023/03/18 06:52:17;;;;;;;7.03;5.27;;;11.20;24.80;;;;;;5053192;28;20427;-51
2023/03/18 06:54:44;;;;;;;9.73;5.85;;;11.20;24.50;;;;;;5053236;28;20178;-51
2023/03/18 06:57:10;;;;;;;9.43;5.28;;;11.20;24.80;;;;;;5052733;28;20677;-51
2023/03/18 06:59:37;;;;;;;10.40;5.93;;;11.30;24.90;;;;;;5053211;28;20187;-50
2023/03/18 07:02:04;;;;;;;7.22;4.72;;;11.30;24.80;;;;;;5052899;28;20541;-51
2023/03/18 07:04:32;;;;;;;7.35;6.18;;;11.40;24.70;;;;;;5052949;28;20200;-51
2023/03/18 07:06:59;;;;;;;9.68;6.05;;;11.40;24.70;;;;;;5052597;28;20235;-51
2023/03/18 07:09:25;;;;;;;7.05;5.40;;;11.50;24.70;;;;;;5052817;28;20181;-51
2023/03/18 07:11:52;;;;;;;5.93;4.60;;;11.60;24.70;;;;;;5052729;28;20172;-51
2023/03/18 07:14:18;;;;;;;8.45;5.60;;;11.70;24.60;;;;;;5052991;28;20180;-51
2023/03/18 07:16:44;;;;;;;8.63;5.72;;;11.80;24.30;;;;;;5052404;28;20608;-49
2023/03/18 07:19:11;;;;;;;7.25;4.97;;;11.90;24.10;;;;;;5052763;28;20193;-49
2023/03/18 07:21:37;;;;;;;6.50;4.93;;;11.90;24.20;;;;;;5052617;28;20177;-49
2023/03/18 07:24:02;;;;;;;7.43;5.13;;;11.90;23.90;;;;;;5052541;28;20663;-49
2023/03/18 07:26:29;;;;;;;6.23;4.87;;;12.10;24.00;;;;;;5052035;28;20466;-49
2023/03/18 07:28:55;;;;;;;6.80;4.93;;;12.10;24.00;;;;;;5067921;28;20406;-49
2023/03/18 07:31:21;;;;;;;8.82;5.95;;;12.30;23.70;;;;;;5052254;28;20181;-49
2023/03/18 07:33:47;;;;;;;6.88;5.10;;;12.50;24.00;;;;;;5052507;28;20173;-49
2023/03/18 07:36:14;;;;;;;6.40;5.70;;;12.70;23.40;;;;;;5052047;28;20621;-49
2023/03/18 07:38:40;;;;;;;7.65;4.97;;;12.90;23.40;;;;;;5052155;28;20442;-48
2023/03/18 07:41:06;;;;;;;7.40;5.10;;;13.00;23.10;;;;;;5051990;28;20824;-49
2023/03/18 07:43:32;;;;;;;7.53;5.18;;;13.10;22.70;;;;;;5052277;28;20415;-50
2023/03/18 07:45:57;;;;;;;7.55;5.05;;;13.20;22.90;;;;;;5051866;28;20295;-49
2023/03/18 07:48:23;;;;;;;9.97;5.70;;;13.30;22.50;;;;;;5052220;28;20275;-49
2023/03/18 07:50:49;;;;;;;8.67;6.10;;;13.40;22.70;;;;;;5052432;28;20165;-50
2023/03/18 07:53:15;;;;;;;6.97;4.70;;;13.40;22.50;;;;;;5051955;28;20408;-50
2023/03/18 07:55:41;;;;;;;8.65;6.25;;;13.40;22.40;;;;;;5051583;28;20249;-49
2023/03/18 07:58:07;;;;;;;8.30;5.53;;;13.20;22.30;;;;;;5051383;28;20268;-49
2023/03/18 08:00:34;;;;;;;8.73;6.07;;;13.20;22.10;;;;;;5051835;28;20411;-49
2023/03/18 08:03:00;;;;;;;9.55;7.22;;;13.20;23.00;;;;;;5051281;28;20177;-49
2023/03/18 08:05:26;;;;;;;10.73;5.10;;;13.40;23.00;;;;;;5051301;28;20330;-49
2023/03/18 08:07:52;;;;;;;6.22;5.00;;;13.30;22.90;;;;;;5051142;28;20427;-49
2023/03/18 08:10:19;;;;;;;8.52;5.32;;;13.30;22.80;;;;;;5051290;28;20174;-49
2023/03/18 08:12:44;;;;;;;9.75;6.68;;;13.40;22.90;;;;;;5051478;28;20166;-48
2023/03/18 08:15:11;;;;;;;5.90;4.80;;;13.50;22.60;;;;;;5051293;28;20184;-49
2023/03/18 08:17:37;;;;;;;6.63;4.95;;;13.70;22.60;;;;;;5051131;28;20189;-48
2023/03/18 08:20:04;;;;;;;8.60;5.85;;;13.70;22.40;;;;;;5051487;28;20176;-49
2023/03/18 08:22:30;;;;;;;9.15;5.32;;;13.80;22.40;;;;;;5051183;28;20181;-49
2023/03/18 08:24:57;;;;;;;7.13;4.83;;;13.80;22.30;;;;;;5051114;28;20177;-50
2023/03/18 08:27:23;;;;;;;6.90;5.30;;;13.90;22.60;;;;;;5051513;28;20240;-51
2023/03/18 08:29:48;;;;;;;6.35;4.47;;;14.10;22.70;;;;;;5052011;28;20193;-50
2023/03/18 08:32:15;;;;;;;9.67;6.53;;;14.30;22.30;;;;;;5051998;28;20212;-50
2023/03/18 08:34:42;;;;;;;9.82;5.28;;;14.40;22.10;;;;;;5051977;28;20169;-49
2023/03/18 08:37:08;;;;;;;7.60;5.30;;;14.40;22.30;;;;;;5051704;28;20204;-49
2023/03/18 08:39:34;;;;;;;12.23;7.15;;;14.60;21.80;;;;;;5051345;28;20633;-50
2023/03/18 08:42:03;;;;;;;7.73;4.57;;;14.60;21.80;;;;;;5051067;28;20315;-50
2023/03/18 08:44:29;;;;;;;6.80;5.28;;;14.60;21.50;;;;;;5051141;28;20219;-50
2023/03/18 08:46:56;;;;;;;8.65;5.95;;;14.60;21.40;;;;;;5049176;28;20240;-49
2023/03/18 08:49:23;;;;;;;6.15;5.13;;;14.60;21.50;;;;;;5050876;28;20200;-50
2023/03/18 08:51:49;;;;;;;10.15;6.07;;;14.60;21.30;;;;;;5031922;28;20261;-50
2023/03/18 08:54:15;;;;;;;6.90;5.18;;;14.60;21.70;;;;;;5011036;28;20166;-50
2023/03/18 08:56:41;;;;;;;12.40;6.30;;;14.80;22.30;;;;;;5010414;28;20205;-50
2023/03/18 08:59:07;;;;;;;11.50;7.10;;;15.00;21.90;;;;;;5010932;28;20548;-51
2023/03/18 09:01:33;;;;;;;7.45;5.40;;;15.20;21.40;;;;;;5010845;28;20208;-49
2023/03/18 09:03:59;;;;;;;13.75;6.10;;;15.40;20.70;;;;;;5010881;28;20185;-50
2023/03/18 09:06:26;;;;;;;8.33;6.30;;;15.60;21.20;;;;;;5010610;28;20214;-50
2023/03/18 09:08:52;;;;;;;6.40;5.28;;;15.70;20.70;;;;;;5010795;28;20198;-50
2023/03/18 09:11:18;;;;;;;8.57;5.20;;;15.70;21.10;;;;;;5010883;28;20261;-50
2023/03/18 09:13:44;;;;;;;6.40;5.30;;;15.80;20.90;;;;;;5010929;28;20409;-49
2023/03/18 09:16:10;;;;;;;7.17;5.60;;;16.00;20.80;;;;;;5010622;28;20413;-49
2023/03/18 09:18:36;;;;;;;9.03;4.60;;;16.10;20.80;;;;;;5010916;28;20269;-51
2023/03/18 09:21:03;;;;;;;8.77;6.03;;;16.10;20.50;;;;;;5011104;28;20547;-50
2023/03/18 09:23:30;;;;;;;9.20;5.97;;;16.10;20.50;;;;;;5010715;28;20171;-51
2023/03/18 09:25:56;;;;;;;8.90;6.10;;;16.30;20.40;;;;;;5010306;28;20693;-50
2023/03/18 09:28:23;;;;;;;7.50;5.93;;;16.50;20.30;;;;;;5010550;28;20257;-50
2023/03/18 09:30:49;;;;;;;9.60;6.15;;;16.70;20.80;;;;;;5010492;28;20819;-50
2023/03/18 09:33:15;;;;;;;5.32;4.68;;;16.90;19.90;;;;;;5010509;28;20559;-50
2023/03/18 09:35:41;;;;;;;9.10;5.57;;;17.00;19.90;;;;;;5010370;28;20179;-50
2023/03/18 09:38:12;;;;;;;8.55;5.80;;;17.20;20.00;;;;;;5010081;28;20268;-50
2023/03/18 09:41:02;;;;;;;7.90;5.65;;;17.30;19.60;;;;;;5010478;28;20159;-50
2023/03/18 09:43:35;;;;;;;7.55;6.07;;;17.40;19.50;;;;;;5010081;28;20206;-50
2023/03/18 09:46:39;;;;;;;7.32;5.30;;;17.60;19.70;;;;;;5010237;28;20297;-49
2023/03/18 09:49:14;;;;;;;10.48;6.25;;;17.80;19.50;;;;;;5010059;28;20553;-50
2023/03/18 09:51:56;;;;;;;6.25;4.82;;;17.80;19.80;;;;;;5010253;28;20170;-50
2023/03/18 09:55:02;;;;;;;7.80;6.93;;;17.80;19.50;;;;;;5010247;28;20186;-50
2023/03/18 09:57:33;;;;;;;9.65;7.47;;;17.90;19.70;;;;;;5010247;28;20224;-49
2023/03/18 10:00:17;;;;;;;12.07;7.30;;;17.90;19.90;;;;;;5010390;28;20182;-49
2023/03/18 10:03:00;;;;;;;7.18;5.65;;;17.90;19.70;;;;;;5010195;28;20265;-49
2023/03/18 10:05:52;;;;;;;10.75;6.50;;;17.90;19.70;;;;;;5010444;28;20181;-50
2023/03/18 10:08:40;;;;;;;7.10;5.55;;;18.10;20.20;;;;;;5011005;28;20237;-50
2023/03/18 10:11:19;;;;;;;9.45;6.15;;;18.30;19.70;;;;;;5013869;28;20194;-50
2023/03/18 10:13:56;;;;;;;7.10;5.70;;;18.40;20.00;;;;;;5013945;28;20213;-50
2023/03/18 10:16:28;;;;;;;9.18;5.72;;;18.40;19.70;;;;;;5013615;28;20174;-50
2023/03/18 10:18:54;;;;;;;8.90;6.03;;;18.40;20.00;;;;;;5013898;28;20178;-50
2023/03/18 10:21:36;;;;;;;8.38;6.10;;;18.50;20.20;;;;;;5013916;28;20183;-50
2023/03/18 10:24:18;;;;;;;11.48;6.75;;;18.60;19.70;;;;;;5013914;28;20249;-50
2023/03/18 10:26:49;;;;;;;9.90;6.20;;;18.80;20.00;;;;;;5013048;28;20210;-51
2023/03/18 10:29:39;;;;;;;9.20;5.78;;;19.00;19.40;;;;;;5013829;28;20167;-50
2023/03/18 10:32:39;;;;;;;6.60;5.25;;;19.00;19.50;;;;;;5013373;28;20662;-50
2023/03/18 10:35:22;;;;;;;11.35;6.40;;;18.90;19.00;;;;;;5013500;28;20167;-50
2023/03/18 10:37:56;;;;;;;10.60;8.60;;;18.80;19.50;;;;;;5013176;28;20202;-50
2023/03/18 10:40:23;;;;;;;9.40;5.85;;;18.80;19.60;;;;;;5013736;28;20171;-50
2023/03/18 10:42:51;;;;;;;10.18;7.47;;;18.60;19.50;;;;;;5013393;28;20182;-50
2023/03/18 10:45:32;;;;;;;9.88;6.22;;;18.60;19.50;;;;;;5013405;28;20249;-50
2023/03/18 10:48:04;;;;;;;9.05;7.43;;;18.60;20.00;;;;;;5013308;28;20202;-50
2023/03/18 10:50:45;;;;;;;9.38;6.40;;;18.70;19.70;;;;;;5013218;28;20677;-50
2023/03/18 10:53:27;;;;;;;9.68;7.05;;;18.80;20.10;;;;;;5013488;28;20185;-50
2023/03/18 10:56:03;;;;;;;13.18;6.90;;;18.90;20.30;;;;;;5013255;28;20210;-50
2023/03/18 10:58:29;;;;;;;10.63;6.68;;;18.90;19.90;;;;;;5012905;28;20201;-50
2023/03/18 11:00:55;;;;;;;12.27;6.57;;;18.80;20.00;;;;;;5012920;28;20182;-50
2023/03/18 11:03:31;;;;;;;10.80;7.70;;;18.80;20.60;;;;;;5013005;28;20413;-51
2023/03/18 11:06:00;;;;;;;8.60;6.50;;;18.80;20.10;;;;;;5012859;28;20194;-50
2023/03/18 11:08:38;;;;;;;10.73;7.75;;;18.80;20.60;;;;;;5012829;28;20194;-50
2023/03/18 11:11:34;;;;;;;9.40;6.95;;;18.90;20.60;;;;;;5012811;28;20319;-49
2023/03/18 11:14:03;;;;;;;8.88;7.40;;;18.70;19.90;;;;;;5012756;28;20170;-50
2023/03/18 11:16:31;;;;;;;14.85;8.60;;;18.60;20.30;;;;;;5012607;28;20202;-50
2023/03/18 11:18:57;;;;;;;9.82;7.20;;;18.70;20.10;;;;;;5012532;28;20182;-50
2023/03/18 11:21:25;;;;;;;8.32;6.40;;;18.70;20.60;;;;;;5012615;28;20175;-50
2023/03/18 11:24:09;;;;;;;7.50;6.30;;;18.80;20.20;;;;;;5012520;28;20643;-51
2023/03/18 11:26:54;;;;;;;7.75;6.43;;;18.90;20.50;;;;;;5012235;28;20249;-51
2023/03/18 11:29:32;;;;;;;7.90;5.57;;;19.00;20.70;;;;;;5012607;28;20668;-50
2023/03/18 11:32:00;;;;;;;7.28;5.68;;;19.00;19.90;;;;;;5011282;28;20232;-50
2023/03/18 11:34:29;;;;;;;7.38;5.50;;;19.00;19.60;;;;;;5011110;28;20232;-50
2023/03/18 11:37:03;;;;;;;6.65;4.88;;;19.00;19.90;;;;;;5012190;28;20195;-50
2023/03/18 11:39:32;;;;;;;8.10;6.50;;;19.10;20.00;;;;;;5012439;28;20678;-50
2023/03/18 11:42:04;;;;;;;7.97;4.80;;;19.20;19.90;;;;;;5012261;28;20249;-50
2023/03/18 11:44:31;;;;;;;8.77;5.80;;;19.30;19.80;;;;;;5012442;28;20205;-50
2023/03/18 11:47:14;;;;;;;12.52;6.00;;;19.40;19.60;;;;;;5011761;28;20694;-50
2023/03/18 11:49:42;;;;;;;7.93;5.60;;;19.50;19.80;;;;;;5012129;28;20175;-51
2023/03/18 11:52:43;;;;;;;8.30;6.20;;;19.60;19.20;;;;;;5012227;28;20257;-50
2023/03/18 11:55:25;;;;;;;8.80;5.93;;;19.50;19.10;;;;;;5012227;28;20216;-50
2023/03/18 11:58:20;;;;;;;12.70;5.60;;;19.20;19.60;;;;;;5011957;28;20230;-50
2023/03/18 12:01:11;;;;;;;11.10;6.93;;;19.30;20.40;;;;;;5011912;28;20167;-50
2023/03/18 12:04:25;;;;;;;8.10;6.97;;;19.50;20.00;;;;;;5011891;28;20760;-50
2023/03/18 12:07:17;;;;;;;12.82;6.97;;;19.70;19.50;;;;;;5011147;28;20263;-50
2023/03/18 12:10:09;;;;;;;9.25;6.13;;;19.70;19.90;;;;;;5010677;28;20191;-51
2023/03/18 12:12:59;;;;;;;8.15;5.93;;;19.60;19.20;;;;;;5011149;28;20159;-51
2023/03/18 12:15:54;;;;;;;10.45;7.18;;;19.60;19.50;;;;;;5012166;28;20155;-51
2023/03/18 12:18:38;;;;;;;10.02;7.35;;;19.30;19.70;;;;;;5010304;28;20210;-51
2023/03/18 12:21:40;;;;;;;8.48;7.07;;;19.20;19.80;;;;;;5011962;28;20224;-50
2023/03/18 12:24:21;;;;;;;11.05;6.70;;;19.20;20.00;;;;;;5010000;28;20882;-51
2023/03/18 12:27:01;;;;;;;9.88;7.07;;;19.10;20.30;;;;;;5011070;28;20288;-51
2023/03/18 12:29:56;;;;;;;8.85;5.88;;;19.30;19.70;;;;;;5011250;28;20166;-51
2023/03/18 12:32:44;;;;;;;10.25;7.47;;;19.30;19.80;;;;;;5007376;28;20233;-51
2023/03/18 12:35:25;;;;;;;13.75;8.35;;;19.40;19.90;;;;;;5011217;28;20174;-51
2023/03/18 12:38:09;;;;;;;7.47;5.57;;;19.40;19.80;;;;;;5010860;28;20285;-51
2023/03/18 12:40:40;;;;;;;10.00;6.72;;;19.40;19.90;;;;;;5011231;28;20253;-51
2023/03/18 12:43:33;;;;;;;9.00;6.75;;;19.50;19.90;;;;;;5011008;28;20175;-51
2023/03/18 12:46:08;;;;;;;7.95;7.13;;;19.50;19.40;;;;;;5011147;28;20547;-51
2023/03/18 12:48:48;;;;;;;13.38;7.35;;;19.40;19.60;;;;;;5010959;28;20191;-51
2023/03/18 12:51:23;;;;;;;11.40;7.50;;;19.30;20.00;;;;;;5010187;28;20181;-50
2023/03/18 12:53:55;;;;;;;10.15;8.80;;;19.10;20.00;;;;;;5010928;28;20234;-51
2023/03/18 12:56:30;;;;;;;12.90;8.20;;;19.00;20.30;;;;;;5010921;28;20182;-51
2023/03/18 12:59:26;;;;;;;11.82;6.95;;;19.00;20.30;;;;;;5011037;28;20189;-52
2023/03/18 13:02:36;;;;;;;9.68;6.70;;;18.90;20.00;;;;;;5010923;28;20167;-51